Terminal Aerodrome Forecast
Issued by NWS Tampa Bay Area, FL

Home | Current Version | Previous Version | Text Only | Print | Product List | Glossary On
Versions: 1 2 3 4 5 6 7 8 9 10 11 12
000
FTUS42 KTBW 211700
TAFFMY
TAF
KFMY 211729Z 2118/2218 16007KT P6SM SCT030 BKN080 BKN250
     FM212000 18007KT P6SM BKN070 BKN200
     FM220000 15004KT P6SM BKN060 BKN120
     FM221300 18007KT P6SM FEW025 BKN100=

USA.gov is the U.S. government's official web portal to all federal, state and local government web resources and services.